sensor_id;sensor_type;location;lat;lon;timestamp;P1;durP1;ratioP1;P2;durP2;ratioP2
1545;SDS011;766;51.502;9.752;2023-04-05T00:01:33;8.38;;;3.85;;
1545;SDS011;766;51.502;9.752;2023-04-05T00:04:03;10.05;;;3.40;;
1545;SDS011;766;51.502;9.752;2023-04-05T00:06:34;5.90;;;2.60;;
1545;SDS011;766;51.502;9.752;2023-04-05T00:09:05;6.22;;;2.90;;
1545;SDS011;766;51.502;9.752;2023-04-05T00:11:34;7.30;;;3.00;;
1545;SDS011;766;51.502;9.752;2023-04-05T00:14:04;5.45;;;2.65;;
1545;SDS011;766;51.502;9.752;2023-04-05T00:16:34;8.13;;;2.88;;
1545;SDS011;766;51.502;9.752;2023-04-05T00:19:02;4.20;;;2.28;;
1545;SDS011;766;51.502;9.752;2023-04-05T00:21:31;4.13;;;2.63;;
1545;SDS011;766;51.502;9.752;2023-04-05T00:24:00;4.43;;;2.20;;
1545;SDS011;766;51.502;9.752;2023-04-05T00:26:29;5.57;;;2.45;;
1545;SDS011;766;51.502;9.752;2023-04-05T00:28:57;7.07;;;2.60;;
1545;SDS011;766;51.502;9.752;2023-04-05T00:31:27;5.17;;;2.47;;
1545;SDS011;766;51.502;9.752;2023-04-05T00:33:56;3.63;;;2.22;;
1545;SDS011;766;51.502;9.752;2023-04-05T00:36:24;3.65;;;2.03;;
1545;SDS011;766;51.502;9.752;2023-04-05T00:38:53;5.78;;;2.20;;
1545;SDS011;766;51.502;9.752;2023-04-05T00:41:22;3.88;;;1.90;;
1545;SDS011;766;51.502;9.752;2023-04-05T00:43:51;4.65;;;1.95;;
1545;SDS011;766;51.502;9.752;2023-04-05T00:46:19;5.03;;;2.40;;
1545;SDS011;766;51.502;9.752;2023-04-05T00:48:49;7.60;;;2.25;;
1545;SDS011;766;51.502;9.752;2023-04-05T00:51:17;3.63;;;2.22;;
1545;SDS011;766;51.502;9.752;2023-04-05T00:53:46;6.00;;;2.50;;
1545;SDS011;766;51.502;9.752;2023-04-05T00:56:18;5.90;;;2.20;;
1545;SDS011;766;51.502;9.752;2023-04-05T00:58:49;3.90;;;2.10;;
1545;SDS011;766;51.502;9.752;2023-04-05T01:01:18;4.78;;;2.20;;
1545;SDS011;766;51.502;9.752;2023-04-05T01:03:50;7.10;;;2.40;;
1545;SDS011;766;51.502;9.752;2023-04-05T01:06:21;4.28;;;2.30;;
1545;SDS011;766;51.502;9.752;2023-04-05T01:09:04;3.42;;;1.92;;
1545;SDS011;766;51.502;9.752;2023-04-05T01:11:37;6.10;;;2.20;;
1545;SDS011;766;51.502;9.752;2023-04-05T01:14:06;4.53;;;2.25;;
1545;SDS011;766;51.502;9.752;2023-04-05T01:16:35;4.30;;;2.07;;
1545;SDS011;766;51.502;9.752;2023-04-05T01:19:04;3.85;;;1.98;;
1545;SDS011;766;51.502;9.752;2023-04-05T01:21:45;3.10;;;2.10;;
1545;SDS011;766;51.502;9.752;2023-04-05T01:28:05;2.67;;;2.05;;
1545;SDS011;766;51.502;9.752;2023-04-05T01:30:48;7.07;;;1.92;;
1545;SDS011;766;51.502;9.752;2023-04-05T01:33:28;4.32;;;2.20;;
1545;SDS011;766;51.502;9.752;2023-04-05T01:36:09;4.70;;;2.13;;
1545;SDS011;766;51.502;9.752;2023-04-05T01:38:49;3.58;;;2.10;;
1545;SDS011;766;51.502;9.752;2023-04-05T01:41:20;5.80;;;2.00;;
1545;SDS011;766;51.502;9.752;2023-04-05T01:43:49;4.35;;;2.25;;
1545;SDS011;766;51.502;9.752;2023-04-05T01:46:19;3.75;;;2.05;;
1545;SDS011;766;51.502;9.752;2023-04-05T01:48:47;4.77;;;2.40;;
1545;SDS011;766;51.502;9.752;2023-04-05T01:51:16;4.30;;;2.30;;
1545;SDS011;766;51.502;9.752;2023-04-05T01:53:45;4.20;;;2.28;;
1545;SDS011;766;51.502;9.752;2023-04-05T01:56:13;3.33;;;1.87;;
1545;SDS011;766;51.502;9.752;2023-04-05T01:58:42;6.88;;;2.42;;
1545;SDS011;766;51.502;9.752;2023-04-05T02:01:10;5.40;;;2.30;;
1545;SDS011;766;51.502;9.752;2023-04-05T02:03:41;5.70;;;2.40;;
1545;SDS011;766;51.502;9.752;2023-04-05T02:06:09;5.73;;;2.30;;
1545;SDS011;766;51.502;9.752;2023-04-05T02:08:37;5.07;;;2.90;;
1545;SDS011;766;51.502;9.752;2023-04-05T02:11:05;6.00;;;2.77;;
1545;SDS011;766;51.502;9.752;2023-04-05T02:13:36;6.13;;;2.27;;
1545;SDS011;766;51.502;9.752;2023-04-05T02:16:05;6.57;;;2.30;;
1545;SDS011;766;51.502;9.752;2023-04-05T02:18:33;5.85;;;2.95;;
1545;SDS011;766;51.502;9.752;2023-04-05T02:21:06;6.70;;;2.87;;
1545;SDS011;766;51.502;9.752;2023-04-05T02:23:36;6.60;;;2.45;;
1545;SDS011;766;51.502;9.752;2023-04-05T02:26:05;5.20;;;2.40;;
1545;SDS011;766;51.502;9.752;2023-04-05T02:28:33;4.05;;;2.42;;
1545;SDS011;766;51.502;9.752;2023-04-05T02:31:07;7.30;;;2.25;;
1545;SDS011;766;51.502;9.752;2023-04-05T02:33:36;5.85;;;2.50;;
1545;SDS011;766;51.502;9.752;2023-04-05T02:36:09;3.57;;;2.33;;
1545;SDS011;766;51.502;9.752;2023-04-05T02:38:39;4.63;;;2.42;;
1545;SDS011;766;51.502;9.752;2023-04-05T02:41:08;4.00;;;2.58;;
1545;SDS011;766;51.502;9.752;2023-04-05T02:43:38;7.77;;;2.73;;
1545;SDS011;766;51.502;9.752;2023-04-05T02:46:07;4.37;;;2.70;;
1545;SDS011;766;51.502;9.752;2023-04-05T02:48:36;5.03;;;2.50;;
1545;SDS011;766;51.502;9.752;2023-04-05T02:51:05;4.23;;;2.10;;
1545;SDS011;766;51.502;9.752;2023-04-05T02:53:34;3.60;;;2.33;;
1545;SDS011;766;51.502;9.752;2023-04-05T02:56:03;5.90;;;2.30;;
1545;SDS011;766;51.502;9.752;2023-04-05T02:58:33;4.83;;;2.60;;
1545;SDS011;766;51.502;9.752;2023-04-05T03:01:02;4.87;;;2.20;;
1545;SDS011;766;51.502;9.752;2023-04-05T03:03:35;6.87;;;2.30;;
1545;SDS011;766;51.502;9.752;2023-04-05T03:06:06;6.68;;;2.63;;
1545;SDS011;766;51.502;9.752;2023-04-05T03:08:37;5.77;;;2.70;;
1545;SDS011;766;51.502;9.752;2023-04-05T03:11:09;4.00;;;2.25;;
1545;SDS011;766;51.502;9.752;2023-04-05T03:13:38;9.20;;;2.30;;
1545;SDS011;766;51.502;9.752;2023-04-05T03:16:06;3.53;;;2.60;;
1545;SDS011;766;51.502;9.752;2023-04-05T03:18:44;4.80;;;2.50;;
1545;SDS011;766;51.502;9.752;2023-04-05T03:21:18;3.43;;;2.17;;
1545;SDS011;766;51.502;9.752;2023-04-05T03:23:48;10.13;;;2.20;;
1545;SDS011;766;51.502;9.752;2023-04-05T03:26:17;4.03;;;2.40;;
1545;SDS011;766;51.502;9.752;2023-04-05T03:28:47;5.43;;;2.63;;
1545;SDS011;766;51.502;9.752;2023-04-05T03:31:24;9.47;;;3.23;;
1545;SDS011;766;51.502;9.752;2023-04-05T03:33:54;7.57;;;3.33;;
1545;SDS011;766;51.502;9.752;2023-04-05T03:36:23;5.13;;;2.10;;
1545;SDS011;766;51.502;9.752;2023-04-05T03:38:56;4.93;;;2.70;;
1545;SDS011;766;51.502;9.752;2023-04-05T03:41:25;6.30;;;2.33;;
1545;SDS011;766;51.502;9.752;2023-04-05T03:43:53;5.77;;;2.20;;
1545;SDS011;766;51.502;9.752;2023-04-05T03:46:22;5.67;;;2.60;;
1545;SDS011;766;51.502;9.752;2023-04-05T03:48:55;7.70;;;2.80;;
1545;SDS011;766;51.502;9.752;2023-04-05T03:51:23;5.67;;;2.83;;
1545;SDS011;766;51.502;9.752;2023-04-05T03:53:53;8.00;;;2.70;;
1545;SDS011;766;51.502;9.752;2023-04-05T03:56:23;10.47;;;2.63;;
1545;SDS011;766;51.502;9.752;2023-04-05T03:58:52;5.73;;;2.20;;
1545;SDS011;766;51.502;9.752;2023-04-05T04:01:21;9.73;;;2.63;;
1545;SDS011;766;51.502;9.752;2023-04-05T04:03:49;8.60;;;3.20;;
1545;SDS011;766;51.502;9.752;2023-04-05T04:06:18;5.67;;;2.87;;
1545;SDS011;766;51.502;9.752;2023-04-05T04:08:50;4.63;;;2.80;;
1545;SDS011;766;51.502;9.752;2023-04-05T04:11:24;6.13;;;2.83;;
1545;SDS011;766;51.502;9.752;2023-04-05T04:13:52;2.57;;;2.03;;
1545;SDS011;766;51.502;9.752;2023-04-05T04:16:21;4.63;;;2.27;;
1545;SDS011;766;51.502;9.752;2023-04-05T04:18:52;6.20;;;2.50;;
1545;SDS011;766;51.502;9.752;2023-04-05T04:21:20;6.87;;;2.27;;
1545;SDS011;766;51.502;9.752;2023-04-05T04:23:50;6.33;;;2.83;;
1545;SDS011;766;51.502;9.752;2023-04-05T04:26:21;7.13;;;2.33;;
1545;SDS011;766;51.502;9.752;2023-04-05T04:28:56;8.57;;;3.10;;
1545;SDS011;766;51.502;9.752;2023-04-05T04:31:25;5.33;;;2.80;;
1545;SDS011;766;51.502;9.752;2023-04-05T04:33:53;6.43;;;2.90;;
1545;SDS011;766;51.502;9.752;2023-04-05T04:36:22;5.43;;;2.63;;
1545;SDS011;766;51.502;9.752;2023-04-05T04:39:02;3.83;;;2.47;;
1545;SDS011;766;51.502;9.752;2023-04-05T04:41:38;3.37;;;2.00;;
1545;SDS011;766;51.502;9.752;2023-04-05T04:44:11;4.60;;;2.60;;
1545;SDS011;766;51.502;9.752;2023-04-05T04:46:40;2.63;;;1.88;;
1545;SDS011;766;51.502;9.752;2023-04-05T04:49:09;8.03;;;2.80;;
1545;SDS011;766;51.502;9.752;2023-04-05T04:51:38;4.50;;;2.60;;
1545;SDS011;766;51.502;9.752;2023-04-05T04:54:08;5.63;;;2.63;;
1545;SDS011;766;51.502;9.752;2023-04-05T04:56:38;3.83;;;2.22;;
1545;SDS011;766;51.502;9.752;2023-04-05T04:59:06;7.43;;;2.83;;
1545;SDS011;766;51.502;9.752;2023-04-05T05:01:37;5.97;;;3.00;;
1545;SDS011;766;51.502;9.752;2023-04-05T05:04:06;6.27;;;2.63;;
1545;SDS011;766;51.502;9.752;2023-04-05T05:06:36;6.50;;;3.00;;
1545;SDS011;766;51.502;9.752;2023-04-05T05:09:04;6.18;;;2.33;;
1545;SDS011;766;51.502;9.752;2023-04-05T05:11:37;4.07;;;2.40;;
1545;SDS011;766;51.502;9.752;2023-04-05T05:14:08;8.83;;;2.50;;
1545;SDS011;766;51.502;9.752;2023-04-05T05:16:38;7.80;;;2.90;;
1545;SDS011;766;51.502;9.752;2023-04-05T05:19:07;5.47;;;2.70;;
1545;SDS011;766;51.502;9.752;2023-04-05T05:21:35;5.87;;;3.20;;
1545;SDS011;766;51.502;9.752;2023-04-05T05:24:04;5.30;;;3.13;;
1545;SDS011;766;51.502;9.752;2023-04-05T05:26:38;6.63;;;3.37;;
1545;SDS011;766;51.502;9.752;2023-04-05T05:29:07;6.55;;;2.70;;
1545;SDS011;766;51.502;9.752;2023-04-05T05:31:35;7.57;;;3.75;;
1545;SDS011;766;51.502;9.752;2023-04-05T05:34:06;7.22;;;3.20;;
1545;SDS011;766;51.502;9.752;2023-04-05T05:36:34;5.95;;;3.20;;
1545;SDS011;766;51.502;9.752;2023-04-05T05:39:03;5.88;;;3.95;;
1545;SDS011;766;51.502;9.752;2023-04-05T05:41:31;6.68;;;3.28;;
1545;SDS011;766;51.502;9.752;2023-04-05T05:44:00;5.53;;;3.10;;
1545;SDS011;766;51.502;9.752;2023-04-05T05:46:28;6.88;;;3.33;;
1545;SDS011;766;51.502;9.752;2023-04-05T05:48:57;11.57;;;3.30;;
1545;SDS011;766;51.502;9.752;2023-04-05T05:51:27;5.75;;;3.35;;
1545;SDS011;766;51.502;9.752;2023-04-05T05:53:58;8.13;;;3.15;;
1545;SDS011;766;51.502;9.752;2023-04-05T05:56:26;9.40;;;3.40;;
1545;SDS011;766;51.502;9.752;2023-04-05T05:58:55;9.35;;;3.45;;
1545;SDS011;766;51.502;9.752;2023-04-05T06:01:28;5.30;;;3.13;;
1545;SDS011;766;51.502;9.752;2023-04-05T06:03:56;4.78;;;2.90;;
1545;SDS011;766;51.502;9.752;2023-04-05T06:06:26;4.85;;;2.92;;
1545;SDS011;766;51.502;9.752;2023-04-05T06:08:55;5.90;;;2.90;;
1545;SDS011;766;51.502;9.752;2023-04-05T06:11:23;5.97;;;3.10;;
1545;SDS011;766;51.502;9.752;2023-04-05T06:13:51;7.45;;;3.90;;
1545;SDS011;766;51.502;9.752;2023-04-05T06:16:21;8.00;;;4.63;;
1545;SDS011;766;51.502;9.752;2023-04-05T06:18:49;9.82;;;5.03;;
1545;SDS011;766;51.502;9.752;2023-04-05T06:21:20;7.63;;;3.50;;
1545;SDS011;766;51.502;9.752;2023-04-05T06:23:50;8.52;;;4.20;;
1545;SDS011;766;51.502;9.752;2023-04-05T06:26:19;5.28;;;3.95;;
1545;SDS011;766;51.502;9.752;2023-04-05T06:28:52;7.63;;;4.32;;
1545;SDS011;766;51.502;9.752;2023-04-05T06:31:24;7.07;;;3.85;;
1545;SDS011;766;51.502;9.752;2023-04-05T06:33:56;11.15;;;4.28;;
1545;SDS011;766;51.502;9.752;2023-04-05T06:36:25;8.50;;;4.53;;
1545;SDS011;766;51.502;9.752;2023-04-05T06:38:56;11.30;;;4.85;;
1545;SDS011;766;51.502;9.752;2023-04-05T06:41:24;7.88;;;4.57;;
1545;SDS011;766;51.502;9.752;2023-04-05T06:43:53;10.98;;;5.20;;
1545;SDS011;766;51.502;9.752;2023-04-05T06:46:22;12.45;;;5.72;;
1545;SDS011;766;51.502;9.752;2023-04-05T06:48:52;18.55;;;8.27;;
1545;SDS011;766;51.502;9.752;2023-04-05T06:51:26;13.65;;;6.95;;
1545;SDS011;766;51.502;9.752;2023-04-05T06:53:57;13.65;;;5.80;;
1545;SDS011;766;51.502;9.752;2023-04-05T06:56:26;10.75;;;6.22;;
1545;SDS011;766;51.502;9.752;2023-04-05T06:58:56;8.38;;;4.10;;
1545;SDS011;766;51.502;9.752;2023-04-05T07:02:06;4.88;;;3.25;;
1545;SDS011;766;51.502;9.752;2023-04-05T07:05:06;8.18;;;3.08;;
1545;SDS011;766;51.502;9.752;2023-04-05T07:07:37;4.85;;;2.60;;
1545;SDS011;766;51.502;9.752;2023-04-05T07:10:21;7.22;;;3.10;;
1545;SDS011;766;51.502;9.752;2023-04-05T07:12:50;5.75;;;3.17;;
1545;SDS011;766;51.502;9.752;2023-04-05T07:15:18;5.70;;;3.03;;
1545;SDS011;766;51.502;9.752;2023-04-05T07:17:47;9.10;;;3.53;;
1545;SDS011;766;51.502;9.752;2023-04-05T07:20:16;7.93;;;3.40;;
1545;SDS011;766;51.502;9.752;2023-04-05T07:22:44;8.43;;;3.55;;
1545;SDS011;766;51.502;9.752;2023-04-05T07:25:13;4.40;;;2.78;;
1545;SDS011;766;51.502;9.752;2023-04-05T07:27:56;4.65;;;2.90;;
1545;SDS011;766;51.502;9.752;2023-04-05T07:30:30;3.50;;;2.40;;
1545;SDS011;766;51.502;9.752;2023-04-05T07:32:59;4.57;;;2.35;;
1545;SDS011;766;51.502;9.752;2023-04-05T07:35:27;5.68;;;2.35;;
1545;SDS011;766;51.502;9.752;2023-04-05T07:37:55;7.20;;;3.22;;
1545;SDS011;766;51.502;9.752;2023-04-05T07:40:24;6.18;;;4.05;;
1545;SDS011;766;51.502;9.752;2023-04-05T07:42:54;8.77;;;3.90;;
1545;SDS011;766;51.502;9.752;2023-04-05T07:45:23;8.10;;;4.47;;
1545;SDS011;766;51.502;9.752;2023-04-05T07:47:51;5.72;;;3.78;;
1545;SDS011;766;51.502;9.752;2023-04-05T07:50:19;9.45;;;4.10;;
1545;SDS011;766;51.502;9.752;2023-04-05T07:52:48;6.35;;;3.20;;
1545;SDS011;766;51.502;9.752;2023-04-05T07:55:16;4.10;;;2.88;;
1545;SDS011;766;51.502;9.752;2023-04-05T07:57:45;6.30;;;3.80;;
1545;SDS011;766;51.502;9.752;2023-04-05T08:00:15;8.05;;;4.20;;
1545;SDS011;766;51.502;9.752;2023-04-05T08:02:44;6.43;;;2.80;;
1545;SDS011;766;51.502;9.752;2023-04-05T08:05:13;2.90;;;2.20;;
1545;SDS011;766;51.502;9.752;2023-04-05T08:07:41;7.95;;;2.45;;
1545;SDS011;766;51.502;9.752;2023-04-05T08:10:10;4.22;;;2.85;;
1545;SDS011;766;51.502;9.752;2023-04-05T08:12:38;3.92;;;2.50;;
1545;SDS011;766;51.502;9.752;2023-04-05T08:15:07;3.20;;;2.47;;
1545;SDS011;766;51.502;9.752;2023-04-05T08:17:37;5.50;;;2.50;;
1545;SDS011;766;51.502;9.752;2023-04-05T08:20:06;4.65;;;2.70;;
1545;SDS011;766;51.502;9.752;2023-04-05T08:22:35;6.50;;;3.00;;
1545;SDS011;766;51.502;9.752;2023-04-05T08:25:04;4.40;;;2.60;;
1545;SDS011;766;51.502;9.752;2023-04-05T08:27:33;5.10;;;2.75;;
1545;SDS011;766;51.502;9.752;2023-04-05T08:30:02;5.63;;;3.05;;
1545;SDS011;766;51.502;9.752;2023-04-05T08:32:31;5.35;;;2.40;;
1545;SDS011;766;51.502;9.752;2023-04-05T08:35:01;5.72;;;2.58;;
1545;SDS011;766;51.502;9.752;2023-04-05T08:37:32;3.70;;;2.65;;
1545;SDS011;766;51.502;9.752;2023-04-05T08:40:00;4.05;;;2.50;;
1545;SDS011;766;51.502;9.752;2023-04-05T08:42:29;6.18;;;2.67;;
1545;SDS011;766;51.502;9.752;2023-04-05T08:45:03;5.25;;;2.60;;
1545;SDS011;766;51.502;9.752;2023-04-05T08:47:36;5.38;;;2.83;;
1545;SDS011;766;51.502;9.752;2023-04-05T08:50:08;7.22;;;2.58;;
1545;SDS011;766;51.502;9.752;2023-04-05T08:52:39;4.45;;;2.55;;
1545;SDS011;766;51.502;9.752;2023-04-05T08:55:10;5.40;;;2.60;;
1545;SDS011;766;51.502;9.752;2023-04-05T08:57:39;4.32;;;2.53;;
1545;SDS011;766;51.502;9.752;2023-04-05T09:00:12;6.15;;;2.50;;
1545;SDS011;766;51.502;9.752;2023-04-05T09:02:41;3.17;;;2.72;;
1545;SDS011;766;51.502;9.752;2023-04-05T09:05:13;4.57;;;2.75;;
1545;SDS011;766;51.502;9.752;2023-04-05T09:07:43;5.15;;;2.78;;
1545;SDS011;766;51.502;9.752;2023-04-05T09:10:13;4.45;;;2.97;;
1545;SDS011;766;51.502;9.752;2023-04-05T09:12:42;5.72;;;3.45;;
1545;SDS011;766;51.502;9.752;2023-04-05T09:15:10;4.07;;;3.00;;
1545;SDS011;766;51.502;9.752;2023-04-05T09:17:38;7.20;;;3.53;;
1545;SDS011;766;51.502;9.752;2023-04-05T09:20:09;5.45;;;3.05;;
1545;SDS011;766;51.502;9.752;2023-04-05T09:22:42;5.65;;;3.40;;
1545;SDS011;766;51.502;9.752;2023-04-05T09:25:12;4.97;;;3.30;;
1545;SDS011;766;51.502;9.752;2023-04-05T09:28:01;4.70;;;3.35;;
1545;SDS011;766;51.502;9.752;2023-04-05T09:30:29;10.85;;;3.55;;
1545;SDS011;766;51.502;9.752;2023-04-05T09:32:59;4.15;;;2.40;;
1545;SDS011;766;51.502;9.752;2023-04-05T09:35:28;5.75;;;3.17;;
1545;SDS011;766;51.502;9.752;2023-04-05T09:38:00;3.25;;;2.50;;
1545;SDS011;766;51.502;9.752;2023-04-05T09:40:40;7.15;;;2.65;;
1545;SDS011;766;51.502;9.752;2023-04-05T09:43:11;2.85;;;2.13;;
1545;SDS011;766;51.502;9.752;2023-04-05T09:46:00;4.03;;;2.83;;
1545;SDS011;766;51.502;9.752;2023-04-05T09:48:43;5.03;;;3.13;;
1545;SDS011;766;51.502;9.752;2023-04-05T09:51:13;3.90;;;3.05;;
1545;SDS011;766;51.502;9.752;2023-04-05T09:54:00;3.78;;;2.85;;
1545;SDS011;766;51.502;9.752;2023-04-05T09:56:31;4.93;;;2.90;;
1545;SDS011;766;51.502;9.752;2023-04-05T09:59:02;3.60;;;2.50;;
1545;SDS011;766;51.502;9.752;2023-04-05T10:01:35;4.03;;;2.63;;
1545;SDS011;766;51.502;9.752;2023-04-05T10:04:08;4.60;;;2.63;;
1545;SDS011;766;51.502;9.752;2023-04-05T10:06:37;4.93;;;2.45;;
1545;SDS011;766;51.502;9.752;2023-04-05T10:09:10;5.90;;;2.88;;
1545;SDS011;766;51.502;9.752;2023-04-05T10:11:41;3.45;;;2.53;;
1545;SDS011;766;51.502;9.752;2023-04-05T10:14:11;6.40;;;2.78;;
1545;SDS011;766;51.502;9.752;2023-04-05T10:16:42;4.13;;;2.20;;
1545;SDS011;766;51.502;9.752;2023-04-05T10:19:18;5.20;;;2.88;;
1545;SDS011;766;51.502;9.752;2023-04-05T10:21:54;6.35;;;2.97;;
1545;SDS011;766;51.502;9.752;2023-04-05T10:24:32;6.60;;;3.30;;
1545;SDS011;766;51.502;9.752;2023-04-05T10:27:07;4.88;;;2.95;;
1545;SDS011;766;51.502;9.752;2023-04-05T10:29:46;3.50;;;2.80;;
1545;SDS011;766;51.502;9.752;2023-04-05T10:32:26;5.78;;;3.10;;
1545;SDS011;766;51.502;9.752;2023-04-05T10:35:03;5.63;;;2.83;;
1545;SDS011;766;51.502;9.752;2023-04-05T10:37:40;5.10;;;3.08;;
1545;SDS011;766;51.502;9.752;2023-04-05T10:40:20;5.40;;;2.85;;
1545;SDS011;766;51.502;9.752;2023-04-05T10:42:48;7.53;;;3.33;;
1545;SDS011;766;51.502;9.752;2023-04-05T10:45:17;4.85;;;2.83;;
1545;SDS011;766;51.502;9.752;2023-04-05T10:47:49;4.85;;;3.08;;
1545;SDS011;766;51.502;9.752;2023-04-05T10:50:25;6.35;;;3.20;;
1545;SDS011;766;51.502;9.752;2023-04-05T10:52:53;7.18;;;2.90;;
1545;SDS011;766;51.502;9.752;2023-04-05T10:55:26;6.90;;;2.70;;
1545;SDS011;766;51.502;9.752;2023-04-05T10:57:55;6.28;;;2.85;;
1545;SDS011;766;51.502;9.752;2023-04-05T11:00:25;4.57;;;3.10;;
1545;SDS011;766;51.502;9.752;2023-04-05T11:02:56;5.18;;;3.05;;
1545;SDS011;766;51.502;9.752;2023-04-05T11:05:29;7.97;;;4.68;;
1545;SDS011;766;51.502;9.752;2023-04-05T11:08:04;3.88;;;3.03;;
1545;SDS011;766;51.502;9.752;2023-04-05T11:10:37;7.57;;;3.08;;
1545;SDS011;766;51.502;9.752;2023-04-05T11:13:07;4.28;;;2.60;;
1545;SDS011;766;51.502;9.752;2023-04-05T11:15:37;3.10;;;2.80;;
1545;SDS011;766;51.502;9.752;2023-04-05T11:18:08;3.70;;;2.80;;
1545;SDS011;766;51.502;9.752;2023-04-05T11:23:34;5.18;;;3.33;;
1545;SDS011;766;51.502;9.752;2023-04-05T11:26:35;3.47;;;2.75;;
1545;SDS011;766;51.502;9.752;2023-04-05T11:32:13;5.28;;;2.90;;
1545;SDS011;766;51.502;9.752;2023-04-05T11:34:42;4.35;;;2.85;;
1545;SDS011;766;51.502;9.752;2023-04-05T11:37:13;7.18;;;3.25;;
1545;SDS011;766;51.502;9.752;2023-04-05T11:39:42;5.55;;;3.10;;
1545;SDS011;766;51.502;9.752;2023-04-05T11:42:13;6.30;;;3.58;;
1545;SDS011;766;51.502;9.752;2023-04-05T11:44:45;3.95;;;3.05;;
1545;SDS011;766;51.502;9.752;2023-04-05T11:47:15;3.67;;;2.80;;
1545;SDS011;766;51.502;9.752;2023-04-05T11:49:48;5.80;;;2.80;;
1545;SDS011;766;51.502;9.752;2023-04-05T11:52:20;11.02;;;3.20;;
1545;SDS011;766;51.502;9.752;2023-04-05T11:54:48;5.20;;;2.80;;
1545;SDS011;766;51.502;9.752;2023-04-05T11:57:19;6.03;;;2.97;;
1545;SDS011;766;51.502;9.752;2023-04-05T11:59:49;3.25;;;2.42;;
1545;SDS011;766;51.502;9.752;2023-04-05T12:02:18;3.95;;;2.47;;
1545;SDS011;766;51.502;9.752;2023-04-05T12:04:52;6.25;;;3.03;;
1545;SDS011;766;51.502;9.752;2023-04-05T12:07:24;3.05;;;2.58;;
1545;SDS011;766;51.502;9.752;2023-04-05T12:10:06;5.82;;;3.15;;
1545;SDS011;766;51.502;9.752;2023-04-05T12:12:39;6.45;;;3.28;;
1545;SDS011;766;51.502;9.752;2023-04-05T12:15:09;6.05;;;2.90;;
1545;SDS011;766;51.502;9.752;2023-04-05T12:17:41;4.90;;;3.35;;
1545;SDS011;766;51.502;9.752;2023-04-05T12:20:11;5.13;;;3.03;;
1545;SDS011;766;51.502;9.752;2023-04-05T12:22:42;5.15;;;2.88;;
1545;SDS011;766;51.502;9.752;2023-04-05T12:25:13;5.55;;;3.17;;
1545;SDS011;766;51.502;9.752;2023-04-05T12:27:43;4.35;;;2.83;;
1545;SDS011;766;51.502;9.752;2023-04-05T12:30:13;7.72;;;3.10;;
1545;SDS011;766;51.502;9.752;2023-04-05T12:32:44;6.78;;;3.17;;
1545;SDS011;766;51.502;9.752;2023-04-05T12:35:15;4.93;;;3.22;;
1545;SDS011;766;51.502;9.752;2023-04-05T12:37:44;4.75;;;2.95;;
1545;SDS011;766;51.502;9.752;2023-04-05T12:40:13;5.95;;;2.80;;
1545;SDS011;766;51.502;9.752;2023-04-05T12:42:48;4.63;;;3.15;;
1545;SDS011;766;51.502;9.752;2023-04-05T12:45:16;5.15;;;3.22;;
1545;SDS011;766;51.502;9.752;2023-04-05T12:47:48;5.75;;;3.10;;
1545;SDS011;766;51.502;9.752;2023-04-05T12:50:18;6.13;;;3.00;;
1545;SDS011;766;51.502;9.752;2023-04-05T12:52:53;4.63;;;2.95;;
1545;SDS011;766;51.502;9.752;2023-04-05T12:55:22;6.03;;;3.15;;
1545;SDS011;766;51.502;9.752;2023-04-05T12:57:53;4.18;;;2.75;;
1545;SDS011;766;51.502;9.752;2023-04-05T13:00:25;5.15;;;3.45;;
1545;SDS011;766;51.502;9.752;2023-04-05T13:02:55;4.43;;;3.20;;
1545;SDS011;766;51.502;9.752;2023-04-05T13:05:29;5.55;;;3.13;;
1545;SDS011;766;51.502;9.752;2023-04-05T13:07:57;4.80;;;3.03;;
1545;SDS011;766;51.502;9.752;2023-04-05T13:10:26;4.97;;;3.10;;
1545;SDS011;766;51.502;9.752;2023-04-05T13:12:56;6.95;;;3.08;;
1545;SDS011;766;51.502;9.752;2023-04-05T13:15:24;4.68;;;3.35;;
1545;SDS011;766;51.502;9.752;2023-04-05T13:17:52;6.18;;;2.97;;
1545;SDS011;766;51.502;9.752;2023-04-05T13:20:21;6.45;;;2.92;;
1545;SDS011;766;51.502;9.752;2023-04-05T13:22:49;4.00;;;3.33;;
1545;SDS011;766;51.502;9.752;2023-04-05T13:25:18;10.20;;;3.30;;
1545;SDS011;766;51.502;9.752;2023-04-05T13:27:47;4.40;;;3.03;;
1545;SDS011;766;51.502;9.752;2023-04-05T13:30:16;4.55;;;2.97;;
1545;SDS011;766;51.502;9.752;2023-04-05T13:32:45;4.78;;;3.35;;
1545;SDS011;766;51.502;9.752;2023-04-05T13:35:13;5.25;;;3.25;;
1545;SDS011;766;51.502;9.752;2023-04-05T13:37:42;3.20;;;2.90;;
1545;SDS011;766;51.502;9.752;2023-04-05T13:40:10;4.88;;;2.83;;
1545;SDS011;766;51.502;9.752;2023-04-05T13:42:39;4.05;;;3.25;;
1545;SDS011;766;51.502;9.752;2023-04-05T13:45:07;4.20;;;3.17;;
1545;SDS011;766;51.502;9.752;2023-04-05T13:47:39;6.18;;;3.40;;
1545;SDS011;766;51.502;9.752;2023-04-05T13:50:07;6.45;;;2.88;;
1545;SDS011;766;51.502;9.752;2023-04-05T13:52:36;6.10;;;3.88;;
1545;SDS011;766;51.502;9.752;2023-04-05T13:55:05;4.43;;;3.28;;
1545;SDS011;766;51.502;9.752;2023-04-05T13:57:33;4.70;;;3.03;;
1545;SDS011;766;51.502;9.752;2023-04-05T14:00:08;5.82;;;3.20;;
1545;SDS011;766;51.502;9.752;2023-04-05T14:02:39;4.78;;;3.05;;
1545;SDS011;766;51.502;9.752;2023-04-05T14:05:08;5.85;;;3.13;;
1545;SDS011;766;51.502;9.752;2023-04-05T14:07:37;6.18;;;3.00;;
1545;SDS011;766;51.502;9.752;2023-04-05T14:10:07;5.45;;;3.42;;
1545;SDS011;766;51.502;9.752;2023-04-05T14:12:37;6.40;;;3.42;;
1545;SDS011;766;51.502;9.752;2023-04-05T14:15:05;6.38;;;3.08;;
1545;SDS011;766;51.502;9.752;2023-04-05T14:17:35;3.63;;;2.80;;
1545;SDS011;766;51.502;9.752;2023-04-05T14:20:06;4.28;;;3.08;;
1545;SDS011;766;51.502;9.752;2023-04-05T14:22:35;4.13;;;2.85;;
1545;SDS011;766;51.502;9.752;2023-04-05T14:25:04;3.33;;;2.45;;
1545;SDS011;766;51.502;9.752;2023-04-05T14:27:33;6.32;;;3.17;;
1545;SDS011;766;51.502;9.752;2023-04-05T14:30:07;5.00;;;3.13;;
1545;SDS011;766;51.502;9.752;2023-04-05T14:32:36;4.40;;;3.20;;
1545;SDS011;766;51.502;9.752;2023-04-05T14:35:07;8.07;;;2.90;;
1545;SDS011;766;51.502;9.752;2023-04-05T14:37:36;4.88;;;3.30;;
1545;SDS011;766;51.502;9.752;2023-04-05T14:40:05;3.55;;;2.92;;
1545;SDS011;766;51.502;9.752;2023-04-05T14:42:34;4.28;;;2.92;;
1545;SDS011;766;51.502;9.752;2023-04-05T14:45:15;4.22;;;2.85;;
1545;SDS011;766;51.502;9.752;2023-04-05T14:47:43;3.38;;;2.80;;
1545;SDS011;766;51.502;9.752;2023-04-05T14:50:14;7.57;;;3.38;;
1545;SDS011;766;51.502;9.752;2023-04-05T14:52:43;5.60;;;3.38;;
1545;SDS011;766;51.502;9.752;2023-04-05T14:55:11;5.70;;;3.47;;
1545;SDS011;766;51.502;9.752;2023-04-05T14:57:42;4.47;;;3.10;;
1545;SDS011;766;51.502;9.752;2023-04-05T15:00:11;5.97;;;3.38;;
1545;SDS011;766;51.502;9.752;2023-04-05T15:02:40;5.43;;;2.92;;
1545;SDS011;766;51.502;9.752;2023-04-05T15:05:10;4.50;;;2.90;;
1545;SDS011;766;51.502;9.752;2023-04-05T15:07:43;4.63;;;3.10;;
1545;SDS011;766;51.502;9.752;2023-04-05T15:10:11;5.35;;;3.25;;
1545;SDS011;766;51.502;9.752;2023-04-05T15:12:40;4.43;;;2.90;;
1545;SDS011;766;51.502;9.752;2023-04-05T15:15:10;3.92;;;2.70;;
1545;SDS011;766;51.502;9.752;2023-04-05T15:17:39;7.65;;;3.08;;
1545;SDS011;766;51.502;9.752;2023-04-05T15:20:09;5.72;;;3.60;;
1545;SDS011;766;51.502;9.752;2023-04-05T15:22:38;5.63;;;3.17;;
1545;SDS011;766;51.502;9.752;2023-04-05T15:25:13;5.22;;;3.70;;
1545;SDS011;766;51.502;9.752;2023-04-05T15:27:41;5.30;;;3.22;;
1545;SDS011;766;51.502;9.752;2023-04-05T15:30:10;5.15;;;2.97;;
1545;SDS011;766;51.502;9.752;2023-04-05T15:32:39;3.92;;;3.10;;
1545;SDS011;766;51.502;9.752;2023-04-05T15:35:08;6.18;;;3.83;;
1545;SDS011;766;51.502;9.752;2023-04-05T15:37:37;7.28;;;3.97;;
1545;SDS011;766;51.502;9.752;2023-04-05T15:40:06;6.20;;;3.25;;
1545;SDS011;766;51.502;9.752;2023-04-05T15:42:37;3.85;;;3.28;;
1545;SDS011;766;51.502;9.752;2023-04-05T15:45:05;4.75;;;3.47;;
1545;SDS011;766;51.502;9.752;2023-04-05T15:47:35;8.15;;;3.25;;
1545;SDS011;766;51.502;9.752;2023-04-05T15:50:04;6.38;;;3.70;;
1545;SDS011;766;51.502;9.752;2023-04-05T15:52:40;5.22;;;3.25;;
1545;SDS011;766;51.502;9.752;2023-04-05T15:55:09;5.32;;;3.72;;
1545;SDS011;766;51.502;9.752;2023-04-05T15:57:39;7.55;;;3.55;;
1545;SDS011;766;51.502;9.752;2023-04-05T16:00:08;4.63;;;3.30;;
1545;SDS011;766;51.502;9.752;2023-04-05T16:02:37;6.82;;;3.80;;